Time;durP1;ratioP1;P1;durP2;ratioP2;P2;SDS_P1;SDS_P2;PMS_P1;PMS_P2;Temp;Humidity;BMP_temperature;BMP_pressure;BME280_temperature;BME280_humidity;BME280_pressure;Samples;Min_cycle;Max_cycle;Signal;HPM_P1;HPM_P2
2022/08/05 00:01:50;;;;;;;5.10;4.70;;;;;;;;;;10233825;28;20294;-81
2022/08/05 00:06:51;;;;;;;4.70;4.40;;;;;;;;;;10246227;28;20048;-85
2022/08/05 00:11:56;;;;;;;5.00;4.63;;;;;;;;;;10242708;28;20031;-80
2022/08/05 00:16:56;;;;;;;5.15;4.65;;;;;;;;;;10218967;28;20059;-79
2022/08/05 00:21:57;;;;;;;5.10;4.70;;;;;;;;;;10215948;28;20044;-79
2022/08/05 00:26:58;;;;;;;5.70;5.20;;;;;;;;;;10208592;28;20048;-80
2022/08/05 00:31:59;;;;;;;4.90;4.50;;;;;;;;;;10221377;28;20079;-78
2022/08/05 00:36:59;;;;;;;4.90;4.50;;;;;;;;;;10221226;28;20073;-80
2022/08/05 00:42:00;;;;;;;5.23;4.73;;;;;;;;;;10218112;28;20727;-78
2022/08/05 00:47:02;;;;;;;4.70;4.40;;;;;;;;;;10211153;28;20048;-79
2022/08/05 00:52:02;;;;;;;4.47;4.18;;;;;;;;;;10217634;28;20151;-73
2022/08/05 00:57:03;;;;;;;5.47;5.07;;;;;;;;;;10194569;28;20676;-72
2022/08/05 01:02:03;;;;;;;5.47;5.00;;;;;;;;;;10204544;28;20131;-74
2022/08/05 01:07:04;;;;;;;4.80;4.50;;;;;;;;;;10198032;28;20146;-73
2022/08/05 01:12:08;;;;;;;4.32;4.03;;;;;;;;;;10200146;28;20044;-74
2022/08/05 01:17:10;;;;;;;4.80;4.50;;;;;;;;;;10194357;28;20062;-74
2022/08/05 01:22:11;;;;;;;;;;;;;;;;;;10196540;28;20118;-72
2022/08/05 01:27:15;;;;;;;5.13;4.72;;;;;;;;;;10205465;28;19974;-73
2022/08/05 01:32:17;;;;;;;5.15;4.72;;;;;;;;;;10203335;28;20098;-74
2022/08/05 01:37:17;;;;;;;;;;;;;;;;;;10204815;28;20039;-74
2022/08/05 01:42:19;;;;;;;4.22;3.92;;;;;;;;;;10221124;28;19914;-74
2022/08/05 01:47:20;;;;;;;5.43;4.97;;;;;;;;;;10206065;28;20066;-74
2022/08/05 01:52:21;;;;;;;4.80;4.40;;;;;;;;;;10189007;28;20276;-73
2022/08/05 01:57:24;;;;;;;4.80;4.40;;;;;;;;;;10201290;28;20409;-73
2022/08/05 02:02:26;;;;;;;4.63;4.32;;;;;;;;;;10203537;28;20064;-74
2022/08/05 02:07:27;;;;;;;;;;;;;;;;;;10206372;28;20122;-73
2022/08/05 02:12:37;;;;;;;5.03;4.63;;;;;;;;;;10201071;28;20038;-74
2022/08/05 02:17:42;;;;;;;4.95;4.55;;;;;;;;;;10198098;28;20055;-73
2022/08/05 02:22:43;;;;;;;5.72;5.22;;;;;;;;;;10200132;28;20055;-74
2022/08/05 02:27:47;;;;;;;5.30;4.90;;;;;;;;;;10206666;28;20146;-74
2022/08/05 02:32:51;;;;;;;5.43;4.97;;;;;;;;;;10230362;28;20295;-74
2022/08/05 02:37:52;;;;;;;5.00;4.60;;;;;;;;;;10213030;28;20055;-76
2022/08/05 02:42:54;;;;;;;4.68;4.32;;;;;;;;;;10226352;28;20135;-75
2022/08/05 02:47:54;;;;;;;5.70;5.20;;;;;;;;;;10217515;28;20071;-75
2022/08/05 02:52:56;;;;;;;5.65;5.25;;;;;;;;;;10229200;28;20055;-75
2022/08/05 02:57:57;;;;;;;5.95;5.35;;;;;;;;;;10225272;28;20053;-74
2022/08/05 03:02:57;;;;;;;5.53;5.13;;;;;;;;;;10212717;28;20054;-74
2022/08/05 03:07:57;;;;;;;5.73;5.23;;;;;;;;;;10231164;28;20051;-73
2022/08/05 03:12:58;;;;;;;6.67;6.07;;;;;;;;;;10212673;28;20134;-72
2022/08/05 03:17:58;;;;;;;6.75;6.10;;;;;;;;;;10214828;28;20298;-73
2022/08/05 03:22:59;;;;;;;6.03;5.43;;;;;;;;;;10215078;28;20055;-72
2022/08/05 03:28:00;;;;;;;5.95;5.40;;;;;;;;;;10217251;28;20055;-73
2022/08/05 03:33:02;;;;;;;5.82;5.32;;;;;;;;;;10225827;28;20063;-73
2022/08/05 03:38:03;;;;;;;5.57;5.18;;;;;;;;;;10217252;28;20115;-73
2022/08/05 03:43:03;;;;;;;5.22;4.82;;;;;;;;;;10216684;28;20091;-74
2022/08/05 03:48:04;;;;;;;5.83;5.33;;;;;;;;;;10226635;28;20050;-73
2022/08/05 03:53:10;;;;;;;5.93;5.43;;;;;;;;;;10208410;28;20332;-73
2022/08/05 03:58:14;;;;;;;6.05;5.50;;;;;;;;;;10216593;28;20497;-73
2022/08/05 04:03:16;;;;;;;5.13;4.72;;;;;;;;;;10206334;28;20055;-72
2022/08/05 04:08:16;;;;;;;5.63;5.10;;;;;;;;;;10213611;28;20047;-73
2022/08/05 04:13:17;;;;;;;5.15;4.65;;;;;;;;;;10211996;28;20058;-73
2022/08/05 04:18:17;;;;;;;5.65;5.15;;;;;;;;;;10211857;28;20484;-72
2022/08/05 04:23:18;;;;;;;6.70;4.82;;;;;;;;;;10214309;28;20119;-73
2022/08/05 04:28:19;;;;;;;5.50;5.03;;;;;;;;;;10220223;28;20059;-72
2022/08/05 04:33:20;;;;;;;5.07;4.67;;;;;;;;;;10204680;28;20059;-71
2022/08/05 04:38:20;;;;;;;6.13;4.93;;;;;;;;;;10199892;28;20051;-73
2022/08/05 04:43:21;;;;;;;5.33;4.93;;;;;;;;;;10200246;28;20079;-69
2022/08/05 04:48:21;;;;;;;10.80;9.80;;;;;;;;;;10201742;28;20047;-69
2022/08/05 04:53:22;;;;;;;8.87;7.57;;;;;;;;;;10201821;28;20491;-68
2022/08/05 04:58:22;;;;;;;9.15;6.53;;;;;;;;;;10203425;28;20039;-69
2022/08/05 05:03:23;;;;;;;5.93;5.30;;;;;;;;;;10195550;28;20051;-70
2022/08/05 05:08:23;;;;;;;5.83;5.27;;;;;;;;;;10201974;28;20054;-68
2022/08/05 05:13:24;;;;;;;6.70;6.10;;;;;;;;;;10194910;28;20069;-68
2022/08/05 05:18:24;;;;;;;5.10;4.70;;;;;;;;;;10212297;28;20291;-70
2022/08/05 05:23:24;;;;;;;5.17;4.70;;;;;;;;;;10198760;28;20044;-70
2022/08/05 05:28:25;;;;;;;6.00;5.40;;;;;;;;;;10204991;28;20044;-68
2022/08/05 05:33:25;;;;;;;8.80;5.47;;;;;;;;;;10207811;28;20218;-69
2022/08/05 05:38:25;;;;;;;5.20;4.63;;;;;;;;;;10197320;28;20288;-71
2022/08/05 05:43:26;;;;;;;7.18;6.57;;;;;;;;;;10199965;28;20290;-69
2022/08/05 05:48:26;;;;;;;5.17;4.77;;;;;;;;;;10202722;28;20043;-68
2022/08/05 05:53:27;;;;;;;6.43;4.63;;;;;;;;;;10209145;28;20054;-69
2022/08/05 05:58:27;;;;;;;6.07;5.25;;;;;;;;;;10198376;28;20046;-68
2022/08/05 06:03:28;;;;;;;5.07;4.67;;;;;;;;;;10199978;28;20043;-69
2022/08/05 06:08:28;;;;;;;5.87;5.33;;;;;;;;;;10189394;28;20137;-70
2022/08/05 06:13:29;;;;;;;5.32;4.82;;;;;;;;;;10197370;28;20048;-67
2022/08/05 06:18:29;;;;;;;5.63;4.70;;;;;;;;;;10187527;28;20043;-69
2022/08/05 06:23:30;;;;;;;5.50;4.30;;;;;;;;;;10201671;28;20676;-68
2022/08/05 06:28:31;;;;;;;7.07;4.27;;;;;;;;;;10223076;28;20283;-68
2022/08/05 06:33:31;;;;;;;5.83;4.27;;;;;;;;;;10199393;28;20519;-70
2022/08/05 06:38:31;;;;;;;4.53;4.00;;;;;;;;;;10201532;28;20416;-69
2022/08/05 06:43:32;;;;;;;8.43;4.60;;;;;;;;;;10196341;28;20607;-69
2022/08/05 06:48:33;;;;;;;5.60;3.77;;;;;;;;;;10196845;28;20482;-69
2022/08/05 06:53:34;;;;;;;6.68;4.22;;;;;;;;;;10190517;28;20060;-67
2022/08/05 06:58:35;;;;;;;4.68;4.28;;;;;;;;;;10195911;28;20056;-68
2022/08/05 07:03:35;;;;;;;5.07;4.23;;;;;;;;;;10188531;28;20044;-67
2022/08/05 07:08:35;;;;;;;7.33;3.83;;;;;;;;;;10198430;28;20044;-69
2022/08/05 07:18:54;;;;;;;7.38;3.50;;;;;;;;;;10206518;28;20413;-68
2022/08/05 07:23:55;;;;;;;4.67;3.50;;;;;;;;;;10208565;28;20063;-70
2022/08/05 07:28:56;;;;;;;3.42;3.08;;;;;;;;;;10206447;28;20335;-69
2022/08/05 07:33:56;;;;;;;4.03;3.60;;;;;;;;;;10210037;28;20086;-71
2022/08/05 07:38:56;;;;;;;3.40;3.10;;;;;;;;;;10211660;28;20048;-68
2022/08/05 07:43:58;;;;;;;4.43;3.07;;;;;;;;;;10204811;28;20056;-68
2022/08/05 07:48:59;;;;;;;7.07;3.53;;;;;;;;;;10206659;28;20158;-70
2022/08/05 07:53:59;;;;;;;6.07;4.20;;;;;;;;;;10201686;28;20062;-71
2022/08/05 07:58:59;;;;;;;2.87;2.63;;;;;;;;;;10207387;28;20279;-70
2022/08/05 08:04:01;;;;;;;3.50;3.17;;;;;;;;;;10209554;28;20054;-75
2022/08/05 08:09:02;;;;;;;5.05;3.10;;;;;;;;;;10201951;28;20040;-75
2022/08/05 08:14:03;;;;;;;4.40;3.00;;;;;;;;;;10203581;28;20052;-74
2022/08/05 08:19:03;;;;;;;5.10;3.60;;;;;;;;;;10202083;28;20150;-70
2022/08/05 08:24:04;;;;;;;3.93;2.90;;;;;;;;;;10223145;28;20059;-71
2022/08/05 08:29:05;;;;;;;3.92;3.00;;;;;;;;;;10200653;28;20059;-71
2022/08/05 08:34:06;;;;;;;4.93;3.40;;;;;;;;;;10218672;28;20060;-71
2022/08/05 08:39:06;;;;;;;4.07;3.30;;;;;;;;;;10204070;28;20053;-71
2022/08/05 08:44:07;;;;;;;3.30;3.00;;;;;;;;;;10207243;28;20051;-76
2022/08/05 08:49:08;;;;;;;3.80;3.00;;;;;;;;;;10201557;28;20047;-75
2022/08/05 08:54:09;;;;;;;4.50;3.70;;;;;;;;;;10199100;28;20059;-75
2022/08/05 08:59:10;;;;;;;4.90;3.40;;;;;;;;;;10203607;28;20066;-73
2022/08/05 09:04:11;;;;;;;5.35;3.22;;;;;;;;;;10215056;28;20135;-72
2022/08/05 09:09:12;;;;;;;3.90;3.13;;;;;;;;;;10199983;28;20071;-73
2022/08/05 09:14:12;;;;;;;3.80;2.87;;;;;;;;;;10203831;28;20138;-74
2022/08/05 09:19:12;;;;;;;3.50;2.77;;;;;;;;;;10224785;28;20515;-80
2022/08/05 09:24:13;;;;;;;3.37;2.40;;;;;;;;;;10218323;28;20130;-79
2022/08/05 09:29:14;;;;;;;4.57;2.97;;;;;;;;;;10231037;28;20044;-80
2022/08/05 09:34:14;;;;;;;3.33;2.70;;;;;;;;;;10232085;28;20152;-81
2022/08/05 09:39:16;;;;;;;2.50;2.23;;;;;;;;;;10210891;28;20055;-78
2022/08/05 09:44:31;;;;;;;3.45;2.45;;;;;;;;;;10235057;28;20032;-83
2022/08/05 09:49:31;;;;;;;2.53;2.20;;;;;;;;;;10218369;28;20047;-79
2022/08/05 09:54:34;;;;;;;2.00;1.90;;;;;;;;;;10214865;28;20052;-80
2022/08/05 09:59:35;;;;;;;2.58;1.90;;;;;;;;;;10208945;28;20071;-79
2022/08/05 10:04:39;;;;;;;2.27;1.87;;;;;;;;;;10208079;28;20046;-81
2022/08/05 10:09:52;;;;;;;2.25;1.85;;;;;;;;;;10205897;28;20040;-80
2022/08/05 10:14:52;;;;;;;2.17;1.98;;;;;;;;;;10218822;28;20496;-80
2022/08/05 10:19:53;;;;;;;2.35;1.80;;;;;;;;;;10243271;28;20063;-83
2022/08/05 10:24:58;;;;;;;4.30;1.73;;;;;;;;;;10242820;28;20066;-80
2022/08/05 10:30:00;;;;;;;1.75;1.60;;;;;;;;;;10222408;28;20567;-82
2022/08/05 10:35:00;;;;;;;2.35;1.80;;;;;;;;;;10229913;28;20050;-82
2022/08/05 10:40:03;;;;;;;1.83;1.63;;;;;;;;;;10237936;28;20059;-83
2022/08/05 10:45:09;;;;;;;2.38;1.83;;;;;;;;;;10215492;28;20183;-79
2022/08/05 10:50:14;;;;;;;3.40;1.98;;;;;;;;;;10217151;28;20135;-82
2022/08/05 10:55:14;;;;;;;2.42;2.13;;;;;;;;;;10216657;28;20051;-80
2022/08/05 11:00:21;;;;;;;3.15;1.77;;;;;;;;;;10229360;28;20063;-80
2022/08/05 11:05:22;;;;;;;2.45;1.70;;;;;;;;;;10208412;28;20040;-79
2022/08/05 11:10:25;;;;;;;2.25;1.77;;;;;;;;;;10203331;28;20036;-80
2022/08/05 11:15:37;;;;;;;3.08;1.95;;;;;;;;;;10230227;28;20119;-81
2022/08/05 11:20:40;;;;;;;1.85;1.75;;;;;;;;;;10213456;28;20059;-84
2022/08/05 11:25:43;;;;;;;2.42;1.83;;;;;;;;;;10216792;28;20107;-81
2022/08/05 11:35:57;;;;;;;3.05;1.80;;;;;;;;;;10314666;23;20075;-81
2022/08/05 11:41:01;;;;;;;2.30;2.10;;;;;;;;;;10269470;28;20941;-78
2022/08/05 11:46:04;;;;;;;2.58;1.95;;;;;;;;;;10251374;28;20051;-81
2022/08/05 11:51:06;;;;;;;1.98;1.70;;;;;;;;;;10281955;28;20107;-79
2022/08/05 11:56:07;;;;;;;;;;;;;;;;;;10293218;28;20059;-80
2022/08/05 12:01:08;;;;;;;2.78;2.10;;;;;;;;;;10298388;28;19964;-83
2022/08/05 12:06:09;;;;;;;2.00;1.90;;;;;;;;;;10279819;28;20059;-82
2022/08/05 12:11:10;;;;;;;;;;;;;;;;;;10282323;28;20070;-79
2022/08/05 12:16:16;;;;;;;1.95;1.85;;;;;;;;;;10308538;28;19998;-80
2022/08/05 12:21:18;;;;;;;2.13;1.95;;;;;;;;;;10281097;28;20053;-81
2022/08/05 12:26:19;;;;;;;2.20;2.00;;;;;;;;;;10268740;28;20035;-81
2022/08/05 12:31:19;;;;;;;;;;;;;;;;;;10280154;28;20039;-80
2022/08/05 12:36:21;;;;;;;2.58;2.03;;;;;;;;;;10281466;28;19985;-83
2022/08/05 12:41:22;;;;;;;3.17;1.92;;;;;;;;;;10247525;28;20047;-82
2022/08/05 12:46:22;;;;;;;;;;;;;;;;;;10266468;28;20047;-80
2022/08/05 12:51:30;;;;;;;2.00;1.80;;;;;;;;;;10248917;28;19967;-81
2022/08/05 12:56:32;;;;;;;2.38;2.00;;;;;;;;;;10255898;28;20078;-81
2022/08/05 13:01:35;;;;;;;2.97;1.90;;;;;;;;;;10282208;28;20045;-78
2022/08/05 13:06:36;;;;;;;2.55;1.80;;;;;;;;;;10301939;28;20066;-80
2022/08/05 13:11:42;;;;;;;2.30;1.92;;;;;;;;;;10278253;28;20041;-82
2022/08/05 13:16:53;;;;;;;2.50;1.98;;;;;;;;;;10290900;28;20198;-81
2022/08/05 13:21:54;;;;;;;2.63;2.40;;;;;;;;;;10288488;28;20055;-77
2022/08/05 13:26:54;;;;;;;2.53;2.00;;;;;;;;;;10294080;28;20051;-78
2022/08/05 13:31:57;;;;;;;3.20;2.00;;;;;;;;;;10280090;28;20764;-78
2022/08/05 13:36:59;;;;;;;2.30;2.10;;;;;;;;;;10234217;28;20142;-79
2022/08/05 13:41:59;;;;;;;2.38;2.05;;;;;;;;;;10243771;28;20098;-78
2022/08/05 13:46:59;;;;;;;2.63;2.10;;;;;;;;;;10266065;28;20439;-80
2022/08/05 13:52:16;;;;;;;2.30;2.10;;;;;;;;;;10253574;28;20658;-79
2022/08/05 13:57:16;;;;;;;2.95;2.05;;;;;;;;;;10257629;28;20075;-79
2022/08/05 14:02:17;;;;;;;3.05;2.10;;;;;;;;;;10269378;28;20058;-79
2022/08/05 14:07:20;;;;;;;2.75;2.00;;;;;;;;;;10265429;28;20145;-81
2022/08/05 14:12:20;;;;;;;2.67;2.10;;;;;;;;;;10266956;28;20039;-79
2022/08/05 14:17:24;;;;;;;2.27;1.80;;;;;;;;;;10291209;28;20039;-79
2022/08/05 14:22:25;;;;;;;1.88;1.77;;;;;;;;;;10287475;28;20297;-82
2022/08/05 14:27:27;;;;;;;2.20;1.80;;;;;;;;;;10275905;28;20391;-81
2022/08/05 14:32:30;;;;;;;2.92;2.00;;;;;;;;;;10280269;28;20158;-79
2022/08/05 14:37:30;;;;;;;1.83;1.55;;;;;;;;;;10246377;28;20196;-77
2022/08/05 14:42:32;;;;;;;2.10;1.93;;;;;;;;;;10276829;28;20469;-78
2022/08/05 14:47:34;;;;;;;2.20;2.00;;;;;;;;;;10242097;28;20046;-79
2022/08/05 14:52:34;;;;;;;3.63;2.00;;;;;;;;;;10267569;28;20061;-77
2022/08/05 14:57:36;;;;;;;3.22;2.13;;;;;;;;;;10249255;28;20043;-78
2022/08/05 15:02:36;;;;;;;2.60;1.95;;;;;;;;;;10268347;28;20052;-77
2022/08/05 15:07:37;;;;;;;3.10;2.10;;;;;;;;;;10263502;28;20057;-81
2022/08/05 15:12:37;;;;;;;2.83;1.60;;;;;;;;;;10281441;28;20286;-84
2022/08/05 15:17:39;;;;;;;2.50;2.00;;;;;;;;;;10281698;28;20050;-79
2022/08/05 15:22:39;;;;;;;2.20;2.00;;;;;;;;;;10261318;28;20126;-79
2022/08/05 15:27:40;;;;;;;2.38;1.90;;;;;;;;;;10281157;28;20049;-81
2022/08/05 15:32:40;;;;;;;2.97;2.10;;;;;;;;;;10283275;28;20027;-78
2022/08/05 15:37:40;;;;;;;2.70;2.03;;;;;;;;;;10278897;28;20055;-78
2022/08/05 15:42:41;;;;;;;2.50;2.10;;;;;;;;;;10278070;28;20094;-78
2022/08/05 15:47:41;;;;;;;;;;;;;;;;;;10261778;28;20044;-79
2022/08/05 15:52:42;;;;;;;2.53;2.03;;;;;;;;;;10270462;28;19925;-82
2022/08/05 15:57:42;;;;;;;;;;;;;;;;;;10290080;28;20066;-79
2022/08/05 16:02:42;;;;;;;3.30;2.40;;;;;;;;;;10311589;28;19918;-81
2022/08/05 16:07:44;;;;;;;2.60;2.40;;;;;;;;;;10304887;28;20047;-80
2022/08/05 16:12:47;;;;;;;2.40;2.20;;;;;;;;;;10301586;28;20031;-79
2022/08/05 16:17:49;;;;;;;4.03;2.53;;;;;;;;;;10289728;28;20043;-77
2022/08/05 16:22:49;;;;;;;3.00;2.73;;;;;;;;;;10290816;28;20435;-77
2022/08/05 16:27:50;;;;;;;2.70;2.50;;;;;;;;;;10287689;28;20043;-78
2022/08/05 16:32:52;;;;;;;2.70;2.50;;;;;;;;;;10275785;28;20098;-82
2022/08/05 16:37:53;;;;;;;4.10;2.50;;;;;;;;;;10272725;28;20103;-76
2022/08/05 16:42:54;;;;;;;2.63;2.43;;;;;;;;;;10309906;28;20043;-76
2022/08/05 16:47:54;;;;;;;4.10;2.77;;;;;;;;;;10301287;28;20041;-78
2022/08/05 16:52:55;;;;;;;2.97;2.58;;;;;;;;;;10302260;28;20043;-79
2022/08/05 16:57:55;;;;;;;2.73;2.43;;;;;;;;;;10282391;28;20050;-78
2022/08/05 17:02:56;;;;;;;3.20;2.67;;;;;;;;;;10256834;28;20048;-76
2022/08/05 17:07:56;;;;;;;3.00;2.80;;;;;;;;;;10251471;28;20050;-75
2022/08/05 17:12:57;;;;;;;2.93;2.57;;;;;;;;;;10250203;28;20046;-78
2022/08/05 17:17:57;;;;;;;2.80;2.60;;;;;;;;;;10249344;28;20039;-79
2022/08/05 17:22:58;;;;;;;3.67;2.53;;;;;;;;;;10259604;28;20062;-77
2022/08/05 17:27:58;;;;;;;3.30;3.00;;;;;;;;;;10265222;28;20122;-79
2022/08/05 17:33:05;;;;;;;4.03;2.80;;;;;;;;;;10259837;28;20099;-80
2022/08/05 17:38:06;;;;;;;3.80;3.47;;;;;;;;;;10273034;28;20067;-79
2022/08/05 17:43:10;;;;;;;3.70;3.25;;;;;;;;;;10239123;28;20038;-81
2022/08/05 17:48:10;;;;;;;10.75;9.48;;;;;;;;;;10278942;28;20035;-82
2022/08/05 17:53:11;;;;;;;4.38;3.40;;;;;;;;;;10271361;28;20051;-79
2022/08/05 17:58:12;;;;;;;3.57;3.27;;;;;;;;;;10259801;28;20127;-78
2022/08/05 18:03:13;;;;;;;3.97;3.63;;;;;;;;;;10271815;28;20044;-78
2022/08/05 18:08:13;;;;;;;5.25;3.50;;;;;;;;;;10287698;28;20067;-79
2022/08/05 18:13:14;;;;;;;3.80;3.50;;;;;;;;;;10273685;28;20051;-79
2022/08/05 18:18:14;;;;;;;3.80;3.40;;;;;;;;;;10278053;28;20410;-81
2022/08/05 18:23:16;;;;;;;5.70;4.07;;;;;;;;;;10258939;28;20421;-81
2022/08/05 18:28:18;;;;;;;4.22;3.65;;;;;;;;;;10293982;28;20039;-81
2022/08/05 18:33:19;;;;;;;4.78;3.90;;;;;;;;;;10254046;28;20059;-80
2022/08/05 18:38:20;;;;;;;4.27;3.67;;;;;;;;;;10260228;28;20051;-83
2022/08/05 18:43:20;;;;;;;3.93;3.60;;;;;;;;;;10269030;28;20054;-80
2022/08/05 18:48:21;;;;;;;4.33;3.93;;;;;;;;;;10260864;28;20157;-79
2022/08/05 18:53:21;;;;;;;6.80;6.20;;;;;;;;;;10276674;28;20457;-80
2022/08/05 18:58:21;;;;;;;4.03;3.57;;;;;;;;;;10289207;28;20426;-79
2022/08/05 19:03:22;;;;;;;4.60;4.20;;;;;;;;;;10261748;28;20059;-79
2022/08/05 19:08:22;;;;;;;4.33;3.90;;;;;;;;;;10255784;28;20047;-82
2022/08/05 19:13:23;;;;;;;4.07;3.77;;;;;;;;;;10263636;28;20368;-79
2022/08/05 19:18:27;;;;;;;5.47;4.43;;;;;;;;;;10282505;28;20106;-78
2022/08/05 19:23:30;;;;;;;5.10;4.60;;;;;;;;;;10263282;28;20098;-79
2022/08/05 19:28:33;;;;;;;6.55;5.32;;;;;;;;;;10276041;28;20125;-80
2022/08/05 19:33:34;;;;;;;6.55;5.72;;;;;;;;;;10219137;28;20054;-80
2022/08/05 19:38:35;;;;;;;6.20;5.60;;;;;;;;;;10278613;28;20105;-79
2022/08/05 19:43:36;;;;;;;6.78;6.07;;;;;;;;;;10263651;28;20126;-80
2022/08/05 19:48:37;;;;;;;6.57;5.97;;;;;;;;;;10266887;28;20103;-79
2022/08/05 19:53:38;;;;;;;7.38;6.55;;;;;;;;;;10265102;28;20123;-78
2022/08/05 19:58:45;;;;;;;7.65;6.93;;;;;;;;;;10272560;28;20190;-83
2022/08/05 20:03:48;;;;;;;8.10;6.65;;;;;;;;;;10269705;28;20074;-84
2022/08/05 20:08:51;;;;;;;7.43;6.60;;;;;;;;;;10274868;28;20525;-81
2022/08/05 20:13:54;;;;;;;9.32;7.47;;;;;;;;;;10283191;28;20123;-80
2022/08/05 20:18:54;;;;;;;8.93;7.57;;;;;;;;;;10250662;28;20035;-82
2022/08/05 20:23:58;;;;;;;9.20;7.40;;;;;;;;;;10291316;28;20286;-84
2022/08/05 20:29:00;;;;;;;8.88;6.75;;;;;;;;;;10280632;28;20062;-80
2022/08/05 20:34:16;;;;;;;8.50;7.38;;;;;;;;;;10268809;28;20051;-82
2022/08/05 20:39:52;;;;;;;8.15;6.85;;;;;;;;;;10283123;28;20047;-81
2022/08/05 20:44:55;;;;;;;9.35;7.22;;;;;;;;;;10273756;28;20465;-81
2022/08/05 20:50:01;;;;;;;9.70;7.38;;;;;;;;;;10262262;28;20070;-81
2022/08/05 20:55:11;;;;;;;7.65;6.70;;;;;;;;;;10269161;28;20055;-83
2022/08/05 21:00:14;;;;;;;9.55;7.38;;;;;;;;;;10280473;28;20061;-83
2022/08/05 21:05:15;;;;;;;8.45;6.95;;;;;;;;;;10284778;28;20658;-84
2022/08/05 21:10:15;;;;;;;7.70;6.43;;;;;;;;;;10268260;28;20075;-80
2022/08/05 21:15:17;;;;;;;9.32;7.22;;;;;;;;;;10292495;28;20058;-82
2022/08/05 21:20:17;;;;;;;8.97;7.00;;;;;;;;;;10268614;28;20050;-81
2022/08/05 21:25:18;;;;;;;10.30;7.40;;;;;;;;;;10289072;28;20298;-82
2022/08/05 21:30:21;;;;;;;10.50;8.45;;;;;;;;;;10293096;28;20039;-81
2022/08/05 21:35:27;;;;;;;10.85;9.00;;;;;;;;;;10301621;28;20579;-84
2022/08/05 21:40:47;;;;;;;13.32;9.77;;;;;;;;;;10276425;28;20079;-84
2022/08/05 21:46:25;;;;;;;12.57;9.02;;;;;;;;;;10298708;28;20039;-84
2022/08/05 21:51:25;;;;;;;10.35;8.52;;;;;;;;;;10285473;28;20069;-82
2022/08/05 21:56:26;;;;;;;9.80;8.33;;;;;;;;;;10264898;28;20246;-83
2022/08/05 22:01:26;;;;;;;11.13;8.33;;;;;;;;;;10284420;28;20278;-81
2022/08/05 22:06:28;;;;;;;11.85;8.88;;;;;;;;;;10276028;28;20038;-82
2022/08/05 22:11:29;;;;;;;11.40;8.80;;;;;;;;;;10264975;28;20038;-82
2022/08/05 22:16:33;;;;;;;9.40;7.33;;;;;;;;;;10274240;28;20460;-83
2022/08/05 22:21:34;;;;;;;8.63;7.10;;;;;;;;;;10259631;28;20042;-82
2022/08/05 22:31:55;;;;;;;7.60;5.90;;;;;;;;;;10266572;28;20062;-84
2022/08/05 22:36:59;;;;;;;6.80;5.75;;;;;;;;;;10297989;28;20031;-84
2022/08/05 22:42:02;;;;;;;7.45;5.50;;;;;;;;;;10292661;28;20046;-84
2022/08/05 22:47:20;;;;;;;5.63;5.13;;;;;;;;;;10280099;28;20051;-84
2022/08/05 22:52:31;;;;;;;7.18;5.03;;;;;;;;;;10320431;28;20034;-82
2022/08/05 22:57:37;;;;;;;5.25;4.75;;;;;;;;;;10580432;23;20047;-89
2022/08/05 23:02:50;;;;;;;;;;;;;;;;;;;;;
2022/08/05 23:08:01;;;;;;;4.78;4.20;;;;;;;;;;10312041;28;20064;-80
2022/08/05 23:13:07;;;;;;;4.72;4.18;;;;;;;;;;10294311;28;20046;-81
2022/08/05 23:18:27;;;;;;;4.90;4.15;;;;;;;;;;10321858;28;20043;-82
2022/08/05 23:23:30;;;;;;;5.10;3.72;;;;;;;;;;10321413;28;20034;-83
2022/08/05 23:28:38;;;;;;;4.18;3.53;;;;;;;;;;10310586;28;20026;-86
2022/08/05 23:33:39;;;;;;;5.67;3.77;;;;;;;;;;10299904;28;20116;-83
2022/08/05 23:39:09;;;;;;;5.15;3.35;;;;;;;;;;10248430;28;20434;-81
2022/08/05 23:44:31;;;;;;;5.53;4.10;;;;;;;;;;10336859;28;20050;-81
2022/08/05 23:49:39;;;;;;;4.72;3.85;;;;;;;;;;10308895;28;20114;-83
2022/08/05 23:54:49;;;;;;;;;;;;;;;;;;;;;
2022/08/05 23:59:58;;;;;;;4.72;3.70;;;;;;;;;;10359106;28;20056;-84
